Airfield :
LOGIN :

Register | Disclaimer

   EN    FR    IT 

 










Legend :    VFR   Marginal VFR   IFR   Intensive IFR   Very Intensive IFR
Visi :
Ceiling :
>= 8 km
>= 3000ft
5 to 8 km
1000 to 3000 ft
1500m to 5 km
500 to 1000 ft
800 to 1500m
200 to 500 ft
< 800m
< 200 ft
Symbols :   Thunderstorms  Fog  Heavy snow  Heavy precipitations  Wind > 20 kt
SIGMETs :     Misc.  Thunderstorms  Icing  Turbulence  Mountain Waves  Volcanic Ashes






- Airport Elevation : 377 ft


UUBW - Ramenskoye

CURRENT METAR :
  • 251000Z 12003MPS CAVOK 21/10 Q1020 R30/010060 NOSIG

EXPIRED METARs :
  • 250930Z 13003MPS 090V160 CAVOK 21/11 Q1020 R30/010060 NOSIG
  • 250900Z 11002MPS 080V150 CAVOK 20/11 Q1020 R30/010060 NOSIG
  • 250830Z 10003MPS CAVOK 19/11 Q1020 R30/010060 NOSIG
  • 250800Z 11002MPS CAVOK 18/11 Q1020 R30/010060 NOSIG
  • 250730Z 10003MPS CAVOK 16/10 Q1020 R30/010060 NOSIG

TAF TAF UUBW
Valid from the 25 at 09:00 until the 26 at 09:00 UTC


250755Z 2509/2609 12003G08MPS 9999 SCT040 TX22/2512Z TN07/2603Z
PROB40
TEMPO 2520/2605 0300 FG FEW003



MET'MAP, your aeronautical weather chart ! - Copyright ORBIFLY December 2007 - Disclaimer

ORBIFLY MET'MAP TEAM :

Programming & Development : Alexandra Zaïnal
Concept & original design : Baudouin d'Aumeries
Assistance for programming : Marc-Olivier Méhu
Technical & hardware support : Manuel Goepfert

Contact : metmap@orbifly.com




SOURCES & CREDITS :

   NOAA